Time;durP1;ratioP1;P1;durP2;ratioP2;P2;SDS_P1;SDS_P2;PMS_P1;PMS_P2;Temp;Humidity;BMP_temperature;BMP_pressure;BME280_temperature;BME280_humidity;BME280_pressure;Samples;Min_cycle;Max_cycle;Signal;HPM_P1;HPM_P2
2021/08/30 00:01:13;;;;;;;4.97;4.57;;;;;;;15.29;100.00;96261.25;5061461;28;20183;-65
2021/08/30 00:03:38;;;;;;;6.07;5.57;;;;;;;15.22;100.00;96265.94;5052706;28;20210;-65
2021/08/30 00:06:04;;;;;;;5.87;5.47;;;;;;;15.08;100.00;96264.81;5053045;28;20191;-65
2021/08/30 00:08:29;;;;;;;5.87;5.40;;;;;;;15.40;100.00;96260.22;5053206;28;20258;-65
2021/08/30 00:10:55;;;;;;;6.30;5.80;;;;;;;15.11;100.00;96257.16;5057111;28;20229;-65
2021/08/30 00:13:20;;;;;;;6.47;5.90;;;;;;;14.97;100.00;96265.81;5056656;28;20250;-65
2021/08/30 00:15:45;;;;;;;7.87;7.17;;;;;;;15.09;100.00;96258.50;5066683;28;20190;-65
2021/08/30 00:18:11;;;;;;;6.83;6.23;;;;;;;14.99;100.00;96264.50;5076905;28;20177;-65
2021/08/30 00:20:36;;;;;;;7.40;6.80;;;;;;;15.28;100.00;96255.16;5077026;28;20174;-65
2021/08/30 00:23:01;;;;;;;8.07;7.47;;;;;;;15.26;100.00;96256.44;5075833;28;20224;-65
2021/08/30 00:25:27;;;;;;;7.60;6.93;;;;;;;15.13;100.00;96247.13;5076610;28;20202;-65
2021/08/30 00:27:52;;;;;;;7.47;6.77;;;;;;;15.17;100.00;96260.63;5075456;28;20185;-65
2021/08/30 00:30:17;;;;;;;8.27;7.57;;;;;;;15.28;100.00;96251.69;5077116;28;20594;-65
2021/08/30 00:32:43;;;;;;;7.70;7.00;;;;;;;15.07;100.00;96260.59;5076313;28;20163;-65
2021/08/30 00:35:09;;;;;;;8.57;7.77;;;;;;;15.17;100.00;96253.50;5076654;28;20261;-65
2021/08/30 00:37:34;;;;;;;8.07;7.37;;;;;;;15.35;100.00;96249.59;5073199;28;20552;-64
2021/08/30 00:39:59;;;;;;;8.23;7.53;;;;;;;15.28;100.00;96251.69;5076509;28;20629;-65
2021/08/30 00:42:26;;;;;;;7.70;7.00;;;;;;;15.40;100.00;96247.81;5076413;28;20668;-65
2021/08/30 00:44:53;;;;;;;7.73;7.13;;;;;;;15.41;100.00;96241.47;5076030;28;20706;-65
2021/08/30 00:47:19;;;;;;;8.90;7.33;;;;;;;15.42;100.00;96244.91;5076454;28;20496;-65
2021/08/30 00:49:44;;;;;;;8.10;7.30;;;;;;;15.29;100.00;96243.50;5076370;28;20543;-66
2021/08/30 00:52:10;;;;;;;8.63;7.90;;;;;;;15.18;100.00;96249.00;5074590;28;20665;-65
2021/08/30 00:54:35;;;;;;;8.73;7.93;;;;;;;15.20;100.00;96245.03;5075875;28;20198;-65
2021/08/30 00:57:03;;;;;;;7.90;7.20;;;;;;;15.41;100.00;96251.25;5076407;28;20236;-65
2021/08/30 00:59:28;;;;;;;9.07;8.17;;;;;;;15.50;100.00;96247.06;5076170;28;20173;-65
2021/08/30 01:01:53;;;;;;;8.30;7.60;;;;;;;15.24;100.00;96242.66;5076149;28;20409;-65
2021/08/30 01:04:19;;;;;;;9.00;8.20;;;;;;;15.25;100.00;96242.41;5075703;28;20198;-65
2021/08/30 01:07:06;;;;;;;9.70;8.90;;;;;;;15.38;100.00;96241.16;5067108;28;20694;-64
2021/08/30 01:09:57;;;;;;;8.30;7.67;;;;;;;15.41;100.00;96238.84;5056038;28;20202;-65
2021/08/30 01:12:39;;;;;;;8.60;7.90;;;;;;;15.37;100.00;96239.56;5055987;28;20405;-65
2021/08/30 01:15:08;;;;;;;8.43;7.70;;;;;;;15.03;100.00;96238.34;5055957;28;20842;-65
2021/08/30 01:17:37;;;;;;;8.67;7.97;;;;;;;15.23;100.00;96231.31;5056120;28;20741;-65
2021/08/30 01:20:29;;;;;;;9.03;8.33;;;;;;;15.15;100.00;96228.34;5071756;28;20448;-65
2021/08/30 01:22:57;;;;;;;9.70;8.80;;;;;;;15.12;100.00;96228.84;5054099;28;21175;-65
2021/08/30 01:25:24;;;;;;;9.60;8.80;;;;;;;15.16;100.00;96222.78;5055513;28;20445;-65
2021/08/30 01:27:51;;;;;;;9.90;9.17;;;;;;;15.30;100.00;96225.75;5055641;28;20485;-64
2021/08/30 01:30:22;;;;;;;8.83;8.13;;;;;;;15.05;100.00;96223.00;5067118;28;20444;-65
2021/08/30 01:32:56;;;;;;;9.47;8.67;;;;;;;14.95;100.00;96222.94;5075382;28;20397;-65
2021/08/30 01:35:25;;;;;;;9.27;8.40;;;;;;;14.76;100.00;96227.06;5074579;28;20441;-64
2021/08/30 01:37:54;;;;;;;10.10;9.17;;;;;;;15.11;100.00;96221.97;5075604;28;20413;-65
2021/08/30 01:40:21;;;;;;;11.00;9.93;;;;;;;14.97;100.00;96228.75;5075633;28;20741;-64
2021/08/30 01:42:51;;;;;;;10.00;9.00;;;;;;;14.95;100.00;96225.56;5068734;28;20975;-65
2021/08/30 01:45:20;;;;;;;10.13;9.33;;;;;;;15.00;100.00;96221.09;5055172;28;20787;-64
2021/08/30 01:47:47;;;;;;;10.83;9.93;;;;;;;15.11;100.00;96216.69;5055287;28;20468;-64
2021/08/30 01:50:15;;;;;;;10.27;9.37;;;;;;;15.16;100.00;96217.47;5055239;28;20410;-64
2021/08/30 01:52:42;;;;;;;10.93;10.00;;;;;;;14.98;100.00;96220.56;5072094;28;20467;-64
2021/08/30 01:55:26;;;;;;;10.20;9.40;;;;;;;14.95;100.00;96220.28;5075174;28;20429;-65
2021/08/30 02:00:45;;;;;;;8.83;8.13;;;;;;;14.87;100.00;96220.78;5073350;28;20421;-65
2021/08/30 02:03:21;;;;;;;10.20;9.20;;;;;;;14.96;100.00;96212.13;5061080;28;20459;-64
2021/08/30 02:05:49;;;;;;;9.77;8.97;;;;;;;14.92;100.00;96221.59;5074817;28;20849;-65
2021/08/30 02:08:15;;;;;;;9.37;8.57;;;;;;;14.76;100.00;96221.75;5074906;28;20407;-65
2021/08/30 02:10:42;;;;;;;9.33;8.60;;;;;;;14.84;100.00;96216.00;5075276;28;20476;-65
2021/08/30 02:13:08;;;;;;;9.10;8.40;;;;;;;14.87;100.00;96220.78;5074518;28;20170;-65
2021/08/30 02:15:33;;;;;;;9.63;8.83;;;;;;;14.83;100.00;96219.69;5074880;28;20420;-64
2021/08/30 02:18:06;;;;;;;10.70;9.80;;;;;;;15.20;100.00;96207.97;5067513;28;20183;-64
2021/08/30 02:20:36;;;;;;;9.23;8.43;;;;;;;14.97;100.00;96223.47;5054729;28;20183;-65
2021/08/30 02:23:04;;;;;;;9.60;8.80;;;;;;;15.14;100.00;96221.47;5054254;28;20540;-65
2021/08/30 02:25:30;;;;;;;8.90;8.10;;;;;;;15.14;100.00;96214.31;5068827;28;20441;-65
2021/08/30 02:28:00;;;;;;;9.73;8.97;;;;;;;15.38;100.00;96220.00;5067568;28;20448;-64
2021/08/30 02:30:32;;;;;;;9.53;8.63;;;;;;;15.22;100.00;96227.06;5054492;28;20453;-64
2021/08/30 02:33:05;;;;;;;10.43;8.73;;;;;;;15.11;100.00;96216.69;5053772;28;20429;-65
2021/08/30 02:35:32;;;;;;;9.80;8.97;;;;;;;15.28;100.00;96217.28;5054365;28;20418;-64
2021/08/30 02:38:00;;;;;;;8.47;7.70;;;;;;;15.24;100.00;96216.19;5054376;28;20421;-65
2021/08/30 02:40:27;;;;;;;9.57;8.57;;;;;;;14.86;100.00;96217.31;5054389;28;20414;-65
2021/08/30 02:42:55;;;;;;;8.37;7.67;;;;;;;14.67;100.00;96215.34;5061953;28;20460;-65
2021/08/30 02:45:22;;;;;;;8.50;7.80;;;;;;;14.81;100.00;96216.50;5073946;28;20424;-65
2021/08/30 02:47:56;;;;;;;8.27;7.57;;;;;;;14.96;100.00;96211.31;5072158;28;20421;-64
2021/08/30 02:50:22;;;;;;;8.10;7.40;;;;;;;15.10;100.00;96207.94;5072350;28;20415;-65
2021/08/30 02:52:49;;;;;;;9.67;8.77;;;;;;;15.12;100.00;96199.75;5053806;28;20839;-65
2021/08/30 02:55:15;;;;;;;8.13;7.43;;;;;;;15.16;100.00;96198.94;5053966;28;20434;-65
2021/08/30 02:57:41;;;;;;;8.50;7.77;;;;;;;15.11;100.00;96198.16;5054149;28;20418;-65
2021/08/30 03:00:07;;;;;;;7.30;6.70;;;;;;;15.22;100.00;96199.78;5053860;28;20238;-65
2021/08/30 03:02:36;;;;;;;7.10;6.50;;;;;;;15.20;100.00;96202.69;5054026;28;20453;-65
2021/08/30 03:05:02;;;;;;;7.77;7.07;;;;;;;15.33;100.00;96199.56;5053963;28;20429;-64
2021/08/30 03:07:29;;;;;;;8.77;7.97;;;;;;;15.11;100.00;96203.47;5059405;28;20421;-65
2021/08/30 03:09:56;;;;;;;8.27;6.87;;;;;;;15.31;100.00;96200.88;5073924;28;20770;-64
2021/08/30 03:12:22;;;;;;;7.30;6.60;;;;;;;14.96;100.00;96195.44;5073783;28;20440;-65
2021/08/30 03:14:49;;;;;;;6.50;6.00;;;;;;;14.89;100.00;96205.44;5073252;28;20983;-66
2021/08/30 03:17:16;;;;;;;6.50;6.00;;;;;;;14.68;100.00;96196.59;5072188;28;20405;-64
2021/08/30 03:19:45;;;;;;;5.87;5.37;;;;;;;14.80;100.00;96194.53;5070054;28;20940;-65
2021/08/30 03:22:12;;;;;;;7.60;6.57;;;;;;;14.99;100.00;96190.41;5069818;28;20764;-66
2021/08/30 03:24:42;;;;;;;5.70;5.20;;;;;;;14.86;100.00;96190.06;5073080;28;20496;-66
2021/08/30 03:27:11;;;;;;;5.80;5.40;;;;;;;14.79;100.00;96194.78;5073443;28;20489;-66
2021/08/30 03:29:38;;;;;;;4.90;4.50;;;;;;;14.90;100.00;96191.16;5056110;28;20426;-66
2021/08/30 03:32:09;;;;;;;4.90;4.50;;;;;;;15.08;100.00;96183.59;5053685;28;20410;-66
2021/08/30 03:34:37;;;;;;;5.60;5.20;;;;;;;15.07;100.00;96187.25;5053054;28;20429;-66
2021/08/30 03:37:04;;;;;;;4.50;4.20;;;;;;;14.88;100.00;96190.63;5053319;28;20410;-66
2021/08/30 03:39:29;;;;;;;4.73;4.43;;;;;;;14.98;100.00;96188.81;5053223;28;20471;-66
2021/08/30 03:41:57;;;;;;;5.07;4.67;;;;;;;14.93;100.00;96183.50;5053282;28;20414;-66
2021/08/30 03:44:25;;;;;;;5.03;4.63;;;;;;;15.02;100.00;96189.13;5068632;28;20207;-66
2021/08/30 03:46:52;;;;;;;5.87;5.30;;;;;;;14.88;100.00;96180.84;5073540;28;20413;-66
2021/08/30 03:49:19;;;;;;;6.30;5.80;;;;;;;14.96;100.00;96187.50;5073559;28;20470;-66
2021/08/30 03:51:46;;;;;;;6.13;5.63;;;;;;;14.92;100.00;96189.06;5073387;28;20413;-65
2021/08/30 03:54:11;;;;;;;6.17;5.67;;;;;;;15.08;100.00;96182.78;5072733;28;20405;-66
2021/08/30 03:56:38;;;;;;;6.27;5.73;;;;;;;14.91;100.00;96188.25;5073291;28;20404;-66
2021/08/30 03:59:04;;;;;;;6.20;5.70;;;;;;;14.65;100.00;96188.38;5056616;28;20204;-66
2021/08/30 04:01:32;;;;;;;6.10;5.60;;;;;;;14.84;100.00;96186.91;5053239;28;20414;-66
2021/08/30 04:04:00;;;;;;;6.37;5.87;;;;;;;14.62;100.00;96187.00;5052824;28;20462;-66
2021/08/30 04:06:29;;;;;;;6.80;6.30;;;;;;;14.58;100.00;96182.50;5052962;28;20516;-66
2021/08/30 04:08:55;;;;;;;7.97;7.27;;;;;;;14.88;100.00;96188.78;5053295;28;20449;-66
2021/08/30 04:11:21;;;;;;;6.60;6.10;;;;;;;14.98;100.00;96183.50;5053201;28;20409;-66
2021/08/30 04:13:46;;;;;;;7.17;6.57;;;;;;;15.01;100.00;96185.66;5068610;28;20794;-66
2021/08/30 04:16:12;;;;;;;7.97;7.27;;;;;;;15.11;100.00;96184.94;5072977;28;20190;-66
2021/08/30 04:18:37;;;;;;;7.67;6.90;;;;;;;14.99;100.00;96193.06;5072979;28;20548;-66
2021/08/30 04:21:03;;;;;;;7.30;6.60;;;;;;;15.11;100.00;96184.94;5073186;28;20633;-66
2021/08/30 04:23:30;;;;;;;7.50;6.90;;;;;;;15.22;100.00;96192.63;5072474;28;20716;-65
2021/08/30 04:25:56;;;;;;;8.33;7.67;;;;;;;14.99;100.00;96193.06;5072787;28;20202;-66
2021/08/30 04:28:22;;;;;;;7.00;6.40;;;;;;;14.90;100.00;96189.31;5072289;28;20428;-66
2021/08/30 04:30:48;;;;;;;8.40;7.60;;;;;;;15.04;100.00;96192.28;5072965;28;20405;-66
2021/08/30 04:33:14;;;;;;;8.50;7.70;;;;;;;15.34;100.00;96190.56;5072650;28;20412;-66
2021/08/30 04:35:40;;;;;;;9.20;8.40;;;;;;;15.37;100.00;96192.69;5072697;28;20191;-66
2021/08/30 04:38:05;;;;;;;9.27;8.47;;;;;;;15.35;100.00;96196.66;5072768;28;20412;-65
2021/08/30 04:40:31;;;;;;;10.47;9.47;;;;;;;15.33;100.00;96188.97;5072909;28;20177;-66
2021/08/30 04:42:57;;;;;;;11.27;10.17;;;;;;;15.07;100.00;96195.19;5058213;28;20561;-66
2021/08/30 04:45:23;;;;;;;12.30;10.57;;;;;;;14.77;100.00;96195.06;5052599;28;20432;-66
2021/08/30 04:47:48;;;;;;;11.70;10.13;;;;;;;15.18;100.00;96190.78;5052945;28;20268;-66
2021/08/30 04:50:13;;;;;;;11.87;10.67;;;;;;;15.23;100.00;96188.94;5052738;28;20598;-66
2021/08/30 04:52:39;;;;;;;13.17;11.90;;;;;;;14.91;100.00;96190.13;5052224;28;20164;-66
2021/08/30 04:55:05;;;;;;;11.53;10.43;;;;;;;15.09;100.00;96200.28;5053376;28;20274;-66
2021/08/30 04:57:30;;;;;;;11.20;10.00;;;;;;;14.89;100.00;96197.50;5058804;28;20182;-66
2021/08/30 04:59:55;;;;;;;12.40;11.20;;;;;;;14.77;100.00;96199.53;5056350;28;20545;-66
2021/08/30 05:02:21;;;;;;;12.40;10.87;;;;;;;14.59;100.00;96200.75;5056258;28;20499;-66
2021/08/30 05:04:46;;;;;;;12.53;11.23;;;;;;;15.09;100.00;96198.41;5055933;28;20206;-66
2021/08/30 05:07:11;;;;;;;12.43;11.23;;;;;;;15.51;100.00;96202.84;5056267;28;20183;-66
2021/08/30 05:09:37;;;;;;;11.23;10.10;;;;;;;15.71;100.00;96213.50;5056145;28;20176;-66
2021/08/30 05:12:02;;;;;;;13.20;10.33;;;;;;;15.54;100.00;96207.63;5066730;28;20182;-65
2021/08/30 05:14:28;;;;;;;10.37;9.47;;;;;;;15.33;100.00;96198.75;5075537;28;20190;-66
2021/08/30 05:16:53;;;;;;;10.60;9.50;;;;;;;15.66;100.00;96208.19;5076122;28;20228;-65
2021/08/30 05:19:19;;;;;;;11.57;10.37;;;;;;;15.77;100.00;96213.25;5075861;28;20261;-66
2021/08/30 05:21:44;;;;;;;10.67;9.57;;;;;;;15.88;100.00;96208.75;5075998;28;20579;-66
2021/08/30 05:24:09;;;;;;;13.73;11.03;;;;;;;15.92;100.00;96205.34;5075369;28;20297;-66
2021/08/30 05:26:36;;;;;;;12.43;11.20;;;;;;;16.16;100.00;96209.06;5075125;28;20202;-65
2021/08/30 05:29:02;;;;;;;13.90;12.50;;;;;;;15.81;100.00;96210.88;5075698;28;20191;-66
2021/08/30 05:31:28;;;;;;;13.27;11.87;;;;;;;15.83;100.00;96209.56;5075846;28;20409;-66
2021/08/30 05:33:53;;;;;;;12.33;11.07;;;;;;;15.95;100.00;96215.41;5075311;28;20401;-66
2021/08/30 05:36:18;;;;;;;13.43;12.10;;;;;;;16.03;100.00;96214.09;5075636;28;20203;-65
2021/08/30 05:38:44;;;;;;;13.97;12.47;;;;;;;15.68;100.00;96214.81;5075739;28;20648;-66
2021/08/30 05:41:09;;;;;;;12.37;11.07;;;;;;;15.61;100.00;96206.31;5067406;28;20569;-66
2021/08/30 05:43:35;;;;;;;11.87;10.70;;;;;;;15.97;100.00;96210.63;5053693;28;20662;-65
2021/08/30 05:46:00;;;;;;;13.00;11.70;;;;;;;15.95;100.00;96214.59;5055412;28;20192;-65
2021/08/30 05:48:26;;;;;;;13.00;11.70;;;;;;;15.95;100.00;96211.94;5055525;28;20171;-66
2021/08/30 05:50:51;;;;;;;12.00;10.90;;;;;;;16.09;100.00;96213.81;5073337;28;20180;-65
2021/08/30 05:53:16;;;;;;;11.40;10.27;;;;;;;16.11;100.00;96218.88;5075036;28;20175;-66
2021/08/30 05:55:42;;;;;;;9.47;8.53;;;;;;;16.20;100.00;96210.13;5075143;28;20545;-65
2021/08/30 05:58:07;;;;;;;9.70;8.80;;;;;;;16.25;100.00;96220.72;5075438;28;20174;-65
2021/08/30 06:00:32;;;;;;;10.57;9.47;;;;;;;16.30;100.00;96217.31;5075266;28;20499;-66
2021/08/30 06:02:58;;;;;;;9.50;8.60;;;;;;;16.29;100.00;96221.81;5064541;28;20196;-65
2021/08/30 06:05:23;;;;;;;10.60;8.93;;;;;;;16.34;100.00;96227.09;5053666;28;20726;-65
2021/08/30 06:07:49;;;;;;;10.30;9.33;;;;;;;16.20;100.00;96226.03;5054712;28;20172;-65
2021/08/30 06:10:15;;;;;;;9.80;8.80;;;;;;;15.77;100.00;96231.00;5054797;28;20168;-66
2021/08/30 06:12:41;;;;;;;11.40;9.97;;;;;;;16.21;100.00;96232.16;5054383;28;20163;-66
2021/08/30 06:15:07;;;;;;;10.60;9.10;;;;;;;16.29;100.00;96224.44;5054743;28;20804;-66
2021/08/30 06:17:32;;;;;;;10.37;8.70;;;;;;;16.40;100.00;96227.91;5062495;28;20171;-66
2021/08/30 06:19:58;;;;;;;10.40;9.30;;;;;;;16.55;100.00;96235.09;5074541;28;20508;-66
2021/08/30 06:22:23;;;;;;;9.70;8.70;;;;;;;16.52;100.00;96232.97;5074597;28;20170;-66
2021/08/30 06:24:50;;;;;;;9.87;8.97;;;;;;;16.38;100.00;96230.03;5074121;28;20263;-66
2021/08/30 06:27:18;;;;;;;8.53;7.80;;;;;;;16.44;100.00;96235.06;5074515;28;20304;-66
2021/08/30 06:29:44;;;;;;;12.17;9.30;;;;;;;16.44;100.00;96227.13;5074583;28;20413;-66
2021/08/30 06:32:09;;;;;;;11.40;9.70;;;;;;;16.48;100.00;96223.97;5073689;28;20912;-65
2021/08/30 06:34:35;;;;;;;9.87;8.97;;;;;;;16.57;100.00;96223.16;5073450;28;20445;-65
2021/08/30 06:37:00;;;;;;;9.90;8.90;;;;;;;16.57;100.00;96228.47;5074341;28;20188;-66
2021/08/30 06:39:25;;;;;;;13.00;9.47;;;;;;;16.60;100.00;96232.44;5073089;28;20177;-66
2021/08/30 06:41:51;;;;;;;12.83;9.27;;;;;;;16.69;100.00;96233.47;5074318;28;20690;-65
2021/08/30 06:44:16;;;;;;;9.80;8.63;;;;;;;16.69;100.00;96228.19;5073642;28;20198;-66
2021/08/30 06:46:41;;;;;;;10.17;9.17;;;;;;;16.60;100.00;96222.63;5074186;28;20316;-66
2021/08/30 06:49:07;;;;;;;10.70;9.60;;;;;;;16.79;100.00;96244.91;5064944;28;20179;-66
2021/08/30 06:51:32;;;;;;;9.90;9.00;;;;;;;16.80;100.00;96243.84;5054050;28;20178;-66
2021/08/30 06:53:57;;;;;;;9.87;8.97;;;;;;;16.63;100.00;96242.53;5053633;28;20552;-66
2021/08/30 06:56:23;;;;;;;10.67;9.67;;;;;;;16.58;100.00;96242.53;5053808;28;20192;-66
2021/08/30 06:58:48;;;;;;;10.37;9.30;;;;;;;16.74;100.00;96246.78;5054190;28;20171;-65
2021/08/30 07:01:14;;;;;;;11.53;9.90;;;;;;;16.81;100.00;96248.09;5054001;28;20171;-66
2021/08/30 07:03:40;;;;;;;10.60;9.60;;;;;;;16.89;100.00;96250.19;5054349;28;20235;-66
2021/08/30 07:06:05;;;;;;;9.23;8.43;;;;;;;16.80;100.00;96240.38;5072129;28;20195;-66
2021/08/30 07:08:31;;;;;;;10.13;9.23;;;;;;;16.80;100.00;96240.38;5055478;28;20705;-65
2021/08/30 07:10:56;;;;;;;10.10;9.17;;;;;;;16.89;100.00;96244.09;5053764;28;20217;-65
2021/08/30 07:13:21;;;;;;;10.70;9.67;;;;;;;16.79;100.00;96236.16;5053348;28;20220;-66
2021/08/30 07:15:48;;;;;;;10.50;9.50;;;;;;;16.78;100.00;96237.19;5053481;28;20241;-66
2021/08/30 07:18:18;;;;;;;11.13;10.13;;;;;;;16.54;100.00;96246.78;5054334;28;20168;-66
2021/08/30 07:20:43;;;;;;;14.77;11.10;;;;;;;16.81;100.00;96242.78;5073366;28;20416;-66
2021/08/30 07:23:09;;;;;;;10.20;9.20;;;;;;;16.85;100.00;96248.34;5069108;28;20842;-74
2021/08/30 07:25:35;;;;;;;11.87;9.30;;;;;;;17.02;100.00;96243.53;5073497;28;20202;-65
2021/08/30 07:28:00;;;;;;;11.47;10.37;;;;;;;16.99;100.00;96244.88;5073537;28;20174;-65
2021/08/30 07:30:25;;;;;;;10.47;9.50;;;;;;;16.93;100.00;96250.44;5073437;28;20178;-65
2021/08/30 07:32:51;;;;;;;10.33;9.33;;;;;;;17.05;100.00;96248.28;5073039;28;20253;-65
2021/08/30 07:35:16;;;;;;;11.47;10.37;;;;;;;17.04;100.00;96257.34;5073274;28;20194;-65
2021/08/30 07:37:42;;;;;;;11.57;10.37;;;;;;;17.11;100.00;96255.19;5069795;28;20175;-65
2021/08/30 07:40:08;;;;;;;10.40;9.40;;;;;;;17.26;100.00;96245.34;5073275;28;20625;-65
2021/08/30 07:42:34;;;;;;;11.63;10.43;;;;;;;17.21;100.00;96255.19;5073184;28;20217;-64
2021/08/30 07:44:59;;;;;;;9.87;8.87;;;;;;;17.01;100.00;96263.97;5058523;28;20955;-67
2021/08/30 07:47:25;;;;;;;10.23;9.23;;;;;;;17.02;100.00;96257.63;5053164;28;20176;-67
2021/08/30 07:49:50;;;;;;;10.63;9.63;;;;;;;16.75;100.00;96256.31;5053259;28;20178;-65
2021/08/30 07:52:16;;;;;;;10.43;9.53;;;;;;;16.73;100.00;96261.09;5049899;28;20646;-66
2021/08/30 07:54:41;;;;;;;9.40;8.60;;;;;;;16.88;100.00;96274.34;5049392;28;20219;-64
2021/08/30 07:57:06;;;;;;;11.20;10.27;;;;;;;17.07;100.00;96265.56;5067764;28;20178;-66
2021/08/30 07:59:32;;;;;;;10.57;9.57;;;;;;;17.02;100.00;96270.88;5070088;28;20206;-63
2021/08/30 08:01:57;;;;;;;9.97;9.10;;;;;;;16.47;100.00;96270.91;5069635;28;20170;-66
2021/08/30 08:04:23;;;;;;;9.50;8.60;;;;;;;16.61;100.00;96273.84;5068755;28;20207;-65
2021/08/30 08:06:48;;;;;;;9.30;8.50;;;;;;;16.88;100.00;96282.31;5069823;28;20251;-64
2021/08/30 08:09:13;;;;;;;9.43;8.53;;;;;;;16.92;100.00;96281.50;5072516;28;20262;-64
2021/08/30 08:11:39;;;;;;;9.20;8.30;;;;;;;16.86;100.00;96279.13;5065404;28;20305;-69
2021/08/30 08:14:04;;;;;;;9.80;8.90;;;;;;;16.96;100.00;96285.22;5087141;28;20178;-61
2021/08/30 08:16:30;;;;;;;9.60;8.43;;;;;;;16.97;100.00;96289.47;5089141;28;20178;-61
2021/08/30 08:18:55;;;;;;;9.70;8.80;;;;;;;16.73;100.00;96288.44;5082393;28;20182;-60
2021/08/30 08:21:22;;;;;;;9.17;8.27;;;;;;;16.63;100.00;96284.97;5069491;28;20892;-63
2021/08/30 08:23:48;;;;;;;10.20;9.10;;;;;;;16.79;100.00;96286.56;5069037;28;20248;-63
2021/08/30 08:26:13;;;;;;;10.27;9.33;;;;;;;16.78;100.00;96284.97;5070787;28;20448;-60
2021/08/30 08:28:39;;;;;;;9.33;8.43;;;;;;;16.99;100.00;96291.88;5068881;28;20539;-64
2021/08/30 08:31:04;;;;;;;8.57;7.67;;;;;;;17.20;100.00;96299.53;5055197;28;20179;-63
2021/08/30 08:33:29;;;;;;;8.57;7.77;;;;;;;17.37;100.00;96294.69;5056445;28;20198;-61
2021/08/30 08:35:55;;;;;;;8.40;7.70;;;;;;;17.40;100.00;96291.53;5056577;28;20191;-60
2021/08/30 08:38:23;;;;;;;7.87;7.20;;;;;;;17.29;100.00;96291.81;5056630;28;20171;-63
2021/08/30 08:40:50;;;;;;;8.30;7.60;;;;;;;17.13;100.00;96292.91;5056725;28;20254;-60
2021/08/30 08:43:16;;;;;;;7.90;7.30;;;;;;;17.38;100.00;96306.13;5057866;28;20468;-63
2021/08/30 08:45:43;;;;;;;10.27;7.20;;;;;;;17.48;100.00;96298.94;5076281;28;20526;-63
2021/08/30 08:48:10;;;;;;;7.73;7.10;;;;;;;17.43;100.00;96309.56;5076277;28;20427;-60
2021/08/30 08:50:35;;;;;;;7.30;6.70;;;;;;;17.57;100.00;96301.06;5076291;28;20487;-67
2021/08/30 08:53:04;;;;;;;7.70;7.00;;;;;;;17.39;100.00;96305.09;5075948;28;20496;-64
2021/08/30 08:55:34;;;;;;;7.00;6.40;;;;;;;17.51;100.00;96318.09;5076191;28;20225;-63
2021/08/30 08:58:03;;;;;;;8.60;7.80;;;;;;;17.39;100.00;96316.47;5076480;28;20424;-67
2021/08/30 09:00:29;;;;;;;8.63;7.83;;;;;;;17.30;100.00;96309.34;5096570;28;20400;-65
2021/08/30 09:02:54;;;;;;;7.37;6.73;;;;;;;17.42;100.00;96315.16;5075905;28;20564;-65
2021/08/30 09:05:24;;;;;;;8.27;7.57;;;;;;;17.48;100.00;96312.25;5056125;28;20206;-66
2021/08/30 09:07:51;;;;;;;8.13;7.33;;;;;;;17.56;100.00;96318.06;5056433;28;20672;-66
2021/08/30 09:10:21;;;;;;;7.27;6.57;;;;;;;17.57;100.00;96315.16;5055947;28;20880;-64
2021/08/30 09:12:47;;;;;;;7.47;5.97;;;;;;;17.64;100.00;96320.19;5055690;28;20486;-65
2021/08/30 09:15:25;;;;;;;6.80;6.20;;;;;;;17.62;100.00;96319.66;5055787;28;20422;-65
2021/08/30 09:17:53;;;;;;;6.30;5.70;;;;;;;17.64;100.00;96322.84;5078959;28;20423;-64
2021/08/30 09:20:20;;;;;;;6.10;5.60;;;;;;;17.95;100.00;96313.69;5077132;28;20907;-63
2021/08/30 09:22:46;;;;;;;7.10;6.43;;;;;;;18.09;100.00;96320.00;5075328;28;20424;-65
2021/08/30 09:25:13;;;;;;;8.30;7.57;;;;;;;18.03;100.00;96316.56;5074847;28;20453;-63
2021/08/30 09:27:47;;;;;;;7.90;7.10;;;;;;;18.28;100.00;96328.94;5076127;28;20628;-64
2021/08/30 09:30:14;;;;;;;7.90;7.20;;;;;;;18.48;100.00;96319.00;5075638;28;20892;-64
2021/08/30 09:32:42;;;;;;;10.07;9.07;;;;;;;18.65;100.00;96323.13;5075373;28;20401;-65
2021/08/30 09:35:08;;;;;;;10.20;9.20;;;;;;;18.45;100.00;96324.88;5075714;28;20428;-64
2021/08/30 09:37:37;;;;;;;13.77;9.70;;;;;;;18.48;100.00;96320.06;5063769;28;20477;-65
2021/08/30 09:40:09;;;;;;;10.40;9.40;;;;;;;18.31;100.00;96320.41;5055225;28;20421;-64
2021/08/30 09:42:35;;;;;;;10.50;9.60;;;;;;;18.09;100.00;96320.00;5054715;28;20435;-66
2021/08/30 09:45:10;;;;;;;11.30;10.20;;;;;;;18.18;100.00;96321.00;5055260;28;21042;-64
2021/08/30 09:47:36;;;;;;;11.30;9.40;;;;;;;18.34;100.00;96325.16;5055361;28;20496;-65
2021/08/30 09:50:02;;;;;;;10.60;9.60;;;;;;;18.14;100.00;96315.44;5055475;28;20588;-66
2021/08/30 09:52:28;;;;;;;10.27;9.27;;;;;;;18.28;100.00;96319.09;5067293;28;20190;-61
2021/08/30 09:54:53;;;;;;;11.40;10.30;;;;;;;17.84;100.00;96320.09;5074733;28;20199;-65
2021/08/30 09:57:19;;;;;;;13.03;11.70;;;;;;;18.23;100.00;96320.97;5075109;28;20421;-61
2021/08/30 09:59:46;;;;;;;11.33;10.23;;;;;;;18.21;100.00;96315.94;5075130;28;20171;-60
2021/08/30 10:02:17;;;;;;;10.57;9.67;;;;;;;18.08;100.00;96307.78;5074980;28;20409;-60
2021/08/30 10:04:44;;;;;;;11.93;10.80;;;;;;;18.13;100.00;96316.53;5074463;28;20460;-65
2021/08/30 10:07:11;;;;;;;11.77;10.67;;;;;;;18.38;100.00;96308.41;5062444;28;20421;-66
2021/08/30 10:09:41;;;;;;;11.80;10.60;;;;;;;18.48;100.00;96313.66;5054868;28;20406;-61
2021/08/30 10:12:07;;;;;;;12.30;11.10;;;;;;;17.94;100.00;96320.84;5074862;28;20421;-60
2021/08/30 10:14:33;;;;;;;12.47;11.17;;;;;;;18.04;100.00;96320.81;5074401;28;20799;-61
2021/08/30 10:17:03;;;;;;;12.93;11.73;;;;;;;18.14;100.00;96314.63;5074709;28;20405;-61
2021/08/30 10:19:37;;;;;;;12.10;10.90;;;;;;;18.38;100.00;96313.72;5074735;28;20420;-60
2021/08/30 10:22:17;;;;;;;12.50;11.30;;;;;;;18.42;100.00;96314.00;5072034;28;20412;-62
2021/08/30 10:24:43;;;;;;;11.70;10.60;;;;;;;18.41;100.00;96310.53;5069863;28;20468;-61
2021/08/30 10:27:10;;;;;;;13.47;12.17;;;;;;;18.40;100.00;96314.25;5071096;28;20421;-64
2021/08/30 10:29:40;;;;;;;12.23;11.10;;;;;;;18.44;100.00;96307.31;5071098;28;20411;-60
2021/08/30 10:32:10;;;;;;;13.27;11.70;;;;;;;18.35;100.00;96313.47;5070906;28;21178;-64
2021/08/30 10:34:38;;;;;;;11.93;10.80;;;;;;;18.62;100.00;96319.19;5071502;28;20932;-62
2021/08/30 10:37:04;;;;;;;12.97;11.67;;;;;;;18.91;100.00;96316.56;5091336;28;20431;-65
2021/08/30 10:39:40;;;;;;;12.13;10.93;;;;;;;18.98;100.00;96325.03;5088199;28;20416;-65
2021/08/30 10:42:10;;;;;;;12.53;11.23;;;;;;;18.37;100.00;96330.75;5070833;28;20178;-61
2021/08/30 10:44:48;;;;;;;14.00;11.67;;;;;;;18.34;100.00;96323.31;5069056;28;20464;-65
2021/08/30 10:47:14;;;;;;;12.07;10.93;;;;;;;18.58;100.00;96320.81;5070209;28;20415;-61
2021/08/30 10:49:42;;;;;;;11.97;10.90;;;;;;;18.90;100.00;96323.75;5088971;28;20416;-64
2021/08/30 10:52:11;;;;;;;11.93;10.73;;;;;;;19.13;100.00;96325.66;5090993;28;20720;-63
2021/08/30 10:54:48;;;;;;;11.90;10.70;;;;;;;19.12;100.00;96321.44;5084348;28;20441;-63
2021/08/30 10:57:14;;;;;;;10.57;9.57;;;;;;;19.03;99.90;96324.97;5070002;28;20466;-63
2021/08/30 10:59:43;;;;;;;10.37;9.47;;;;;;;18.93;98.53;96335.72;5074672;28;20420;-63
2021/08/30 11:02:08;;;;;;;12.10;10.90;;;;;;;18.82;99.80;96334.22;5090686;28;20223;-62
2021/08/30 11:04:38;;;;;;;9.53;8.73;;;;;;;18.93;99.15;96331.16;5090159;28;20459;-64
2021/08/30 11:07:07;;;;;;;11.80;10.60;;;;;;;19.15;98.93;96334.19;5086909;28;20177;-60
2021/08/30 11:09:33;;;;;;;11.40;10.40;;;;;;;19.09;98.42;96329.19;5069115;28;20424;-61
2021/08/30 11:12:13;;;;;;;10.80;9.80;;;;;;;19.28;98.27;96335.41;5070222;28;20904;-60
2021/08/30 11:14:39;;;;;;;11.17;10.17;;;;;;;19.28;97.92;96338.88;5069861;28;20222;-64
2021/08/30 11:17:05;;;;;;;14.30;10.60;;;;;;;19.24;97.40;96342.38;5070176;28;20502;-63
2021/08/30 11:19:31;;;;;;;10.73;8.70;;;;;;;19.25;96.22;96342.09;5070168;28;20441;-64
2021/08/30 11:22:01;;;;;;;10.83;9.83;;;;;;;19.20;97.75;96352.78;5069725;28;20873;-65